createdAt,value
2018-12-22T00:00:53.827Z,430.63
2018-12-22T00:03:23.460Z,446.40
2018-12-22T00:05:53.260Z,429.33
2018-12-22T00:08:22.908Z,430.93
2018-12-22T00:10:52.561Z,333.00
2018-12-22T00:13:22.387Z,374.57
2018-12-22T00:15:52.007Z,399.10
2018-12-22T00:18:21.708Z,372.83
2018-12-22T00:20:51.410Z,368.17
2018-12-22T00:23:21.105Z,367.60
2018-12-22T00:25:50.842Z,331.33
2018-12-22T00:28:22.341Z,311.67
2018-12-22T00:30:52.207Z,334.63
2018-12-22T00:33:21.919Z,318.60
2018-12-22T00:35:51.433Z,319.10
2018-12-22T00:38:21.092Z,235.60
2018-12-22T00:40:50.925Z,237.70
2018-12-22T00:43:20.856Z,278.00
2018-12-22T00:45:50.505Z,266.23
2018-12-22T00:48:20.110Z,250.50
2018-12-22T00:50:49.707Z,261.30
2018-12-22T00:53:19.379Z,234.80
2018-12-22T00:55:49.235Z,234.07
2018-12-22T00:58:18.883Z,235.10
2018-12-22T01:00:48.511Z,208.37
2018-12-22T01:03:19.202Z,213.23
2018-12-22T01:05:50.050Z,222.50
2018-12-22T01:08:19.673Z,205.47
2018-12-22T01:10:49.450Z,200.30
2018-12-22T01:13:19.260Z,196.87
2018-12-22T01:15:48.994Z,188.97
2018-12-22T01:18:18.808Z,186.33
2018-12-22T01:20:48.358Z,166.23
2018-12-22T01:23:17.977Z,173.03
2018-12-22T01:25:47.831Z,197.30
2018-12-22T01:28:17.446Z,171.23
2018-12-22T01:30:47.196Z,169.93
2018-12-22T01:33:16.894Z,161.23
2018-12-22T01:35:46.678Z,157.83
2018-12-22T01:38:16.210Z,156.23
2018-12-22T01:40:45.786Z,166.47
2018-12-22T01:43:15.558Z,174.97
2018-12-22T01:45:45.175Z,162.10
2018-12-22T01:48:14.744Z,159.63
2018-12-22T01:50:44.412Z,165.40
2018-12-22T01:53:13.892Z,155.20
2018-12-22T01:55:43.658Z,170.40
2018-12-22T01:58:13.152Z,179.07
2018-12-22T02:00:42.873Z,169.13
2018-12-22T02:03:12.394Z,169.60
2018-12-22T02:05:41.886Z,167.20
2018-12-22T02:08:11.516Z,162.97
2018-12-22T02:10:41.161Z,173.93
2018-12-22T02:13:10.872Z,171.03
2018-12-22T02:15:40.675Z,172.30
2018-12-22T02:18:10.378Z,166.40
2018-12-22T02:20:39.937Z,162.00
2018-12-22T02:23:09.604Z,181.27
2018-12-22T02:25:39.171Z,164.17
2018-12-22T02:28:08.989Z,166.33
2018-12-22T02:30:38.760Z,171.40
2018-12-22T02:33:08.379Z,163.07
2018-12-22T02:35:38.242Z,168.37
2018-12-22T02:38:07.879Z,175.63
2018-12-22T02:40:37.605Z,180.67
2018-12-22T02:43:07.282Z,171.53
2018-12-22T02:45:37.190Z,184.63
2018-12-22T02:48:06.908Z,191.43
2018-12-22T02:50:36.508Z,188.73
2018-12-22T02:53:06.193Z,185.40
2018-12-22T02:55:35.692Z,187.73
2018-12-22T02:58:05.264Z,209.23
2018-12-22T03:00:35.049Z,178.23
2018-12-22T03:03:04.730Z,207.80
2018-12-22T03:05:34.312Z,208.43
2018-12-22T03:08:03.927Z,211.40
2018-12-22T03:10:34.632Z,225.57
2018-12-22T03:13:04.265Z,200.73
2018-12-22T03:15:34.059Z,210.87
2018-12-22T03:18:03.819Z,200.37
2018-12-22T03:20:33.653Z,217.67
2018-12-22T03:23:03.525Z,214.67
2018-12-22T03:25:33.395Z,210.47
2018-12-22T03:28:03.135Z,216.43
2018-12-22T03:30:33.183Z,195.20
2018-12-22T03:33:02.891Z,207.60
2018-12-22T03:35:33.185Z,227.60
2018-12-22T03:38:02.766Z,222.27
2018-12-22T03:40:32.319Z,226.40
2018-12-22T03:43:01.960Z,212.87
2018-12-22T03:45:31.442Z,233.67
2018-12-22T03:48:00.973Z,227.80
2018-12-22T03:50:30.475Z,220.80
2018-12-22T03:53:00.017Z,211.43
2018-12-22T03:55:29.657Z,218.60
2018-12-22T03:57:59.466Z,212.30
2018-12-22T04:00:29.074Z,211.10
2018-12-22T04:02:58.838Z,235.50
2018-12-22T04:05:28.451Z,252.40
2018-12-22T04:07:58.327Z,215.43
2018-12-22T04:10:27.803Z,310.73
2018-12-22T04:12:57.444Z,318.27
2018-12-22T04:15:26.966Z,210.37
2018-12-22T04:17:56.547Z,229.07
2018-12-22T04:20:26.213Z,256.47
2018-12-22T04:22:55.862Z,236.43
2018-12-22T04:25:25.458Z,335.60
2018-12-22T04:27:55.292Z,213.67
2018-12-22T04:30:24.879Z,269.00
2018-12-22T04:32:54.349Z,252.97
2018-12-22T04:35:23.928Z,267.43
2018-12-22T04:37:53.565Z,251.03
2018-12-22T04:40:23.226Z,286.83
2018-12-22T04:42:52.873Z,310.30
2018-12-22T04:45:22.521Z,294.97
2018-12-22T04:47:52.170Z,289.67
2018-12-22T04:50:21.756Z,243.63
2018-12-22T04:52:51.385Z,194.10
2018-12-22T04:55:20.989Z,281.03
2018-12-22T04:57:50.646Z,356.20
2018-12-22T05:00:20.272Z,301.73
2018-12-22T05:02:50.064Z,375.53
2018-12-22T05:05:19.480Z,370.17
2018-12-22T05:07:48.989Z,279.97
2018-12-22T05:10:18.503Z,513.57
2018-12-22T05:12:48.200Z,260.87
2018-12-22T05:15:17.704Z,245.73
2018-12-22T05:17:47.352Z,536.17
2018-12-22T05:20:17.100Z,266.73
2018-12-22T05:22:46.706Z,260.43
2018-12-22T05:25:16.332Z,302.67
2018-12-22T05:27:45.924Z,239.53
2018-12-22T05:30:15.495Z,590.50
2018-12-22T05:32:45.264Z,194.37
2018-12-22T05:35:15.186Z,244.83
2018-12-22T05:37:44.749Z,242.57
2018-12-22T05:40:14.420Z,371.27
2018-12-22T05:42:44.067Z,252.40
2018-12-22T05:45:13.686Z,278.83
2018-12-22T05:47:43.183Z,355.43
2018-12-22T05:50:12.983Z,309.73
2018-12-22T05:52:42.816Z,345.70
2018-12-22T05:55:12.480Z,257.03
2018-12-22T05:57:42.127Z,283.70
2018-12-22T06:00:11.828Z,379.27
2018-12-22T06:02:41.630Z,265.33
2018-12-22T06:05:12.174Z,330.37
2018-12-22T06:07:41.701Z,359.03
2018-12-22T06:10:11.215Z,296.33
2018-12-22T06:12:40.719Z,358.00
2018-12-22T06:15:10.389Z,266.60
2018-12-22T06:17:40.110Z,258.37
2018-12-22T06:20:11.042Z,265.73
2018-12-22T06:22:40.751Z,269.63
2018-12-22T06:25:10.237Z,267.40
2018-12-22T06:27:39.749Z,244.73
2018-12-22T06:30:09.619Z,408.87
2018-12-22T06:32:40.437Z,221.73
2018-12-22T06:35:10.025Z,209.70
2018-12-22T06:37:39.842Z,281.63
2018-12-22T06:40:09.356Z,267.13
2018-12-22T06:42:38.951Z,258.40
2018-12-22T06:45:08.620Z,358.07
2018-12-22T06:47:38.351Z,216.90
2018-12-22T06:50:08.137Z,324.87
2018-12-22T06:52:37.933Z,298.80
2018-12-22T06:55:08.507Z,396.13
2018-12-22T06:57:38.094Z,258.90
2018-12-22T07:00:08.444Z,267.67
2018-12-22T07:02:38.071Z,242.83
2018-12-22T07:05:07.952Z,228.03
2018-12-22T07:07:37.422Z,232.20
2018-12-22T07:10:08.679Z,304.17
2018-12-22T07:12:38.226Z,341.57
2018-12-22T07:15:08.241Z,246.47
2018-12-22T07:17:37.906Z,328.97
2018-12-22T07:20:07.972Z,294.57
2018-12-22T07:22:37.705Z,322.27
2018-12-22T07:25:07.843Z,258.83
2018-12-22T07:27:37.681Z,282.67
2018-12-22T07:30:09.140Z,303.73
2018-12-22T07:32:38.815Z,307.87
2018-12-22T07:35:08.378Z,320.37
2018-12-22T07:37:38.107Z,259.80
2018-12-22T07:40:07.751Z,281.17
2018-12-22T07:42:39.372Z,302.30
2018-12-22T07:45:09.153Z,262.17
2018-12-22T07:47:38.723Z,271.07
2018-12-22T07:50:08.403Z,270.17
2018-12-22T07:52:38.246Z,278.67
2018-12-22T07:55:07.717Z,263.83
2018-12-22T07:57:37.418Z,258.37
2018-12-22T08:00:07.387Z,264.93
2018-12-22T08:02:37.240Z,272.93
2018-12-22T08:05:07.233Z,265.60
2018-12-22T08:07:37.035Z,263.20
2018-12-22T08:10:07.352Z,266.90
2018-12-22T08:12:37.121Z,233.37
2018-12-22T08:15:07.087Z,234.67
2018-12-22T08:17:37.405Z,235.10
2018-12-22T08:20:07.448Z,244.80
2018-12-22T08:22:37.030Z,250.03
2018-12-22T08:25:07.150Z,223.90
2018-12-22T08:27:36.971Z,256.07
2018-12-22T08:30:07.671Z,249.03
2018-12-22T08:32:37.495Z,233.67
2018-12-22T08:35:07.218Z,221.17
2018-12-22T08:37:36.935Z,223.80
2018-12-22T08:40:07.977Z,215.33
2018-12-22T08:42:37.688Z,213.23
2018-12-22T08:45:08.496Z,216.17
2018-12-22T08:47:38.154Z,184.60
2018-12-22T08:50:09.631Z,206.40
2018-12-22T08:52:56.367Z,194.03
2018-12-22T08:55:26.309Z,195.33
2018-12-22T08:57:56.105Z,187.13
2018-12-22T09:00:25.467Z,181.37
2018-12-22T09:02:55.210Z,197.30
2018-12-22T09:05:25.107Z,208.97
2018-12-22T09:07:54.957Z,204.37
2018-12-22T09:10:24.429Z,188.60
2018-12-22T09:12:54.076Z,197.20
2018-12-22T09:15:24.667Z,184.00
2018-12-22T09:17:54.202Z,179.13
2018-12-22T09:20:23.765Z,192.73
2018-12-22T09:22:53.411Z,174.67
2018-12-22T09:25:23.095Z,199.63
2018-12-22T09:27:53.357Z,182.37
2018-12-22T09:30:23.121Z,180.17
2018-12-22T09:32:52.816Z,185.67
2018-12-22T09:35:22.440Z,183.80
2018-12-22T09:37:52.073Z,179.47
2018-12-22T09:40:21.789Z,197.33
2018-12-22T09:42:51.244Z,192.93
2018-12-22T09:45:20.870Z,189.23
2018-12-22T09:47:50.342Z,202.43
2018-12-22T09:50:20.208Z,195.47
2018-12-22T09:52:49.592Z,212.03
2018-12-22T09:55:19.197Z,212.77
2018-12-22T09:57:48.786Z,204.67
2018-12-22T10:00:18.446Z,214.53
2018-12-22T10:02:48.068Z,209.23
2018-12-22T10:05:17.777Z,196.53
2018-12-22T10:07:47.590Z,225.03
2018-12-22T10:10:18.726Z,219.40
2018-12-22T10:12:48.587Z,236.80
2018-12-22T10:15:18.224Z,230.77
2018-12-22T10:17:47.734Z,237.30
2018-12-22T10:20:17.765Z,258.20
2018-12-22T10:22:47.532Z,265.13
2018-12-22T10:25:17.825Z,254.33
2018-12-22T10:27:47.444Z,260.20
2018-12-22T10:30:18.224Z,276.20
2018-12-22T10:32:47.840Z,263.00
2018-12-22T10:35:23.626Z,268.10
2018-12-22T10:37:53.427Z,265.60
2018-12-22T10:40:22.944Z,260.43
2018-12-22T10:42:52.569Z,255.37
2018-12-22T10:45:22.106Z,271.97
2018-12-22T10:47:51.817Z,259.40
2018-12-22T10:50:21.383Z,233.70
2018-12-22T10:52:51.110Z,231.97
2018-12-22T10:55:20.961Z,239.83
2018-12-22T10:57:50.760Z,250.17
2018-12-22T11:00:20.566Z,224.57
2018-12-22T11:02:50.260Z,223.20
2018-12-22T11:05:19.999Z,236.40
2018-12-22T11:07:50.034Z,242.73
2018-12-22T11:10:26.448Z,223.30
2018-12-22T11:12:59.244Z,224.20
2018-12-22T11:15:29.025Z,233.63
2018-12-22T11:17:58.612Z,232.97
2018-12-22T11:20:28.128Z,236.33
2018-12-22T11:22:57.799Z,245.37
2018-12-22T11:25:27.845Z,231.63
2018-12-22T11:27:57.499Z,249.07
2018-12-22T11:30:31.341Z,242.43
2018-12-22T11:33:03.280Z,232.37
2018-12-22T11:35:32.880Z,237.33
2018-12-22T11:38:02.681Z,232.43
2018-12-22T11:40:32.188Z,240.03
2018-12-22T11:43:01.705Z,242.73
2018-12-22T11:45:31.291Z,252.00
2018-12-22T11:48:13.480Z,245.37
2018-12-22T11:50:43.239Z,257.53
2018-12-22T11:53:13.080Z,235.97
2018-12-22T11:55:42.958Z,280.47
2018-12-22T11:58:12.623Z,245.30
2018-12-22T12:00:42.277Z,254.23
2018-12-22T12:03:12.327Z,258.63
2018-12-22T12:05:41.964Z,245.60
2018-12-22T12:08:11.529Z,240.67
2018-12-22T12:10:41.361Z,241.97
2018-12-22T12:13:11.190Z,232.37
2018-12-22T12:16:19.904Z,266.57
2018-12-22T12:18:59.383Z,260.03
2018-12-22T12:21:29.443Z,255.33
2018-12-22T12:24:00.466Z,246.60
2018-12-22T12:26:30.442Z,261.07
2018-12-22T12:29:01.512Z,240.87
2018-12-22T12:31:31.294Z,257.30
2018-12-22T12:34:00.845Z,254.27
2018-12-22T12:36:30.435Z,254.40
2018-12-22T12:39:00.141Z,258.40
2018-12-22T12:41:30.128Z,256.67
2018-12-22T12:43:59.713Z,237.43
2018-12-22T12:46:45.500Z,245.17
2018-12-22T12:49:15.500Z,259.67
2018-12-22T12:51:45.107Z,261.60
2018-12-22T12:54:14.805Z,271.17
2018-12-22T12:56:50.799Z,278.77
2018-12-22T12:59:20.531Z,267.70
2018-12-22T13:01:50.413Z,266.33
2018-12-22T13:04:19.989Z,275.80
2018-12-22T13:06:49.741Z,279.60
2018-12-22T13:09:19.401Z,280.57
2018-12-22T13:11:49.759Z,283.57
2018-12-22T13:14:21.865Z,304.13
2018-12-22T13:16:51.341Z,264.73
2018-12-22T13:19:21.564Z,278.13
2018-12-22T13:21:52.936Z,265.57
2018-12-22T13:24:22.474Z,276.87
2018-12-22T13:26:52.055Z,289.17
2018-12-22T13:29:21.664Z,276.53
2018-12-22T13:31:51.229Z,302.07
2018-12-22T13:34:20.818Z,284.33
2018-12-22T13:36:50.489Z,270.67
2018-12-22T13:39:27.658Z,282.80
2018-12-22T13:41:57.255Z,275.60
2018-12-22T13:44:28.015Z,297.57
2018-12-22T13:46:57.569Z,278.20
2018-12-22T13:49:27.701Z,303.80
2018-12-22T13:51:57.818Z,282.63
2018-12-22T13:54:27.730Z,301.17
2018-12-22T13:56:57.453Z,306.10
2018-12-22T13:59:27.114Z,306.20
2018-12-22T14:02:01.291Z,316.33
2018-12-22T14:04:32.269Z,329.37
2018-12-22T14:07:02.811Z,306.90
2018-12-22T14:09:32.628Z,322.97
2018-12-22T14:12:02.165Z,324.13
2018-12-22T14:14:35.201Z,308.57
2018-12-22T14:17:15.261Z,318.30
2018-12-22T14:19:49.384Z,301.73
2018-12-22T14:22:19.114Z,302.53
2018-12-22T14:24:50.836Z,331.40
2018-12-22T14:27:20.559Z,307.90
2018-12-22T14:29:51.251Z,321.70
2018-12-22T14:32:26.846Z,350.90
2018-12-22T14:35:59.400Z,323.57
2018-12-22T14:38:29.770Z,309.23
2018-12-22T14:40:59.397Z,355.17
2018-12-22T14:43:29.093Z,354.03
2018-12-22T14:47:01.692Z,347.40
2018-12-22T14:49:31.297Z,339.70
2018-12-22T14:52:00.952Z,348.93
2018-12-22T14:54:30.522Z,327.83
2018-12-22T14:57:00.213Z,331.57
2018-12-22T14:59:29.749Z,356.30
2018-12-22T15:02:01.180Z,321.57
2018-12-22T15:04:31.190Z,341.00
2018-12-22T15:07:00.851Z,343.97
2018-12-22T15:09:30.506Z,369.83
2018-12-22T15:12:00.175Z,329.63
2018-12-22T15:14:29.734Z,338.93
2018-12-22T15:16:59.561Z,348.13
2018-12-22T15:19:29.186Z,336.17
2018-12-22T15:22:01.330Z,360.67
2018-12-22T15:24:30.992Z,359.53
2018-12-22T15:27:00.369Z,339.90
2018-12-22T15:29:29.888Z,355.33
2018-12-22T15:31:59.532Z,401.00
2018-12-22T15:34:29.157Z,365.23
2018-12-22T15:36:58.893Z,341.90
2018-12-22T15:39:28.662Z,371.97
2018-12-22T15:41:58.284Z,389.30
2018-12-22T15:44:27.960Z,408.50
2018-12-22T15:46:57.644Z,382.43
2018-12-22T15:49:27.609Z,385.70
2018-12-22T15:51:57.370Z,435.53
2018-12-22T15:54:26.810Z,381.70
2018-12-22T15:56:56.414Z,372.00
2018-12-22T15:59:26.180Z,392.03
2018-12-22T16:01:55.749Z,388.40
2018-12-22T16:04:25.526Z,369.37
2018-12-22T16:06:55.251Z,374.30
2018-12-22T16:09:24.817Z,393.47
2018-12-22T16:11:54.507Z,371.73
2018-12-22T16:14:24.150Z,390.23
2018-12-22T16:16:53.833Z,372.07
2018-12-22T16:19:23.608Z,395.70
2018-12-22T16:21:53.345Z,377.57
2018-12-22T16:24:23.284Z,395.43
2018-12-22T16:26:53.304Z,408.47
2018-12-22T16:29:31.733Z,366.80
2018-12-22T16:32:01.466Z,400.77
2018-12-22T16:34:31.083Z,396.43
2018-12-22T16:37:00.676Z,383.87
2018-12-22T16:39:30.297Z,376.63
2018-12-22T16:42:00.312Z,357.97
2018-12-22T16:44:29.918Z,367.93
2018-12-22T16:46:59.792Z,369.17
2018-12-22T16:49:29.500Z,363.17
2018-12-22T16:51:59.138Z,351.60
2018-12-22T16:54:28.808Z,350.23
2018-12-22T16:56:58.463Z,354.77
2018-12-22T16:59:29.633Z,377.93
2018-12-22T17:02:06.528Z,336.27
2018-12-22T17:04:36.651Z,318.17
2018-12-22T17:07:06.290Z,325.00
2018-12-22T17:09:35.857Z,304.40
2018-12-22T17:12:05.527Z,302.03
2018-12-22T17:14:35.100Z,300.57
2018-12-22T17:17:05.049Z,321.03
2018-12-22T17:19:34.611Z,290.67
2018-12-22T17:22:14.248Z,292.53
2018-12-22T17:24:50.953Z,307.33
2018-12-22T17:27:20.498Z,307.37
2018-12-22T17:29:49.974Z,326.70
2018-12-22T17:32:19.532Z,350.63
2018-12-22T17:34:49.304Z,327.20
2018-12-22T17:37:19.306Z,391.97
2018-12-22T17:39:53.537Z,373.93
2018-12-22T17:42:21.022Z,377.80
2018-12-22T17:44:50.513Z,346.27
2018-12-22T17:47:20.326Z,390.87
2018-12-22T17:49:49.766Z,402.30
2018-12-22T17:52:19.478Z,380.40
2018-12-22T17:54:49.210Z,319.20
2018-12-22T17:57:18.762Z,326.77
2018-12-22T17:59:48.403Z,321.73
2018-12-22T18:02:18.058Z,304.60
2018-12-22T18:04:47.646Z,343.47
2018-12-22T18:07:17.213Z,359.30
2018-12-22T18:09:46.749Z,374.07
2018-12-22T18:12:16.318Z,392.23
2018-12-22T18:14:45.964Z,363.17
2018-12-22T18:17:15.798Z,392.03
2018-12-22T18:19:45.379Z,435.57
2018-12-22T18:22:15.101Z,430.00
2018-12-22T18:24:44.636Z,424.93
2018-12-22T18:27:14.027Z,389.33
2018-12-22T18:29:43.792Z,433.93
2018-12-22T18:32:13.488Z,413.33
2018-12-22T18:34:43.262Z,435.53
2018-12-22T18:37:12.859Z,450.13
2018-12-22T18:39:42.566Z,414.23
2018-12-22T18:42:12.208Z,443.03
2018-12-22T18:44:42.078Z,443.10
2018-12-22T18:47:11.716Z,472.93
2018-12-22T18:49:41.205Z,461.67
2018-12-22T18:52:10.807Z,444.80
2018-12-22T18:54:41.057Z,471.47
2018-12-22T18:57:10.553Z,456.17
2018-12-22T18:59:40.048Z,449.40
2018-12-22T19:02:09.714Z,432.27
2018-12-22T19:04:39.278Z,440.90
2018-12-22T19:07:08.924Z,418.20
2018-12-22T19:09:39.965Z,398.83
2018-12-22T19:12:16.214Z,438.20
2018-12-22T19:15:00.255Z,443.00
2018-12-22T19:17:29.949Z,405.37
2018-12-22T19:19:59.681Z,417.80
2018-12-22T19:22:29.403Z,396.73
2018-12-22T19:24:59.077Z,397.43
2018-12-22T19:27:28.672Z,380.53
2018-12-22T19:29:58.219Z,335.90
2018-12-22T19:32:27.873Z,341.50
2018-12-22T19:34:57.633Z,321.03
2018-12-22T19:37:27.282Z,302.80
2018-12-22T19:39:56.685Z,267.17
2018-12-22T19:42:26.376Z,260.43
2018-12-22T19:44:55.956Z,305.70
2018-12-22T19:47:25.527Z,280.37
2018-12-22T19:49:55.048Z,264.50
2018-12-22T19:52:24.584Z,253.00
2018-12-22T19:54:54.340Z,266.20
2018-12-22T19:57:24.375Z,281.23
2018-12-22T19:59:54.044Z,274.23
2018-12-22T20:02:23.628Z,266.07
2018-12-22T20:04:53.369Z,267.27
2018-12-22T20:07:22.983Z,249.37
2018-12-22T20:09:52.795Z,280.07
2018-12-22T20:12:22.488Z,262.67
2018-12-22T20:14:52.002Z,276.07
2018-12-22T20:17:21.560Z,271.97
2018-12-22T20:19:51.223Z,258.40
2018-12-22T20:22:20.805Z,262.07
2018-12-22T20:24:50.537Z,261.97
2018-12-22T20:27:20.223Z,313.70
2018-12-22T20:29:49.988Z,452.10
2018-12-22T20:32:19.515Z,435.57
2018-12-22T20:34:49.112Z,427.97
2018-12-22T20:37:18.869Z,588.20
2018-12-22T20:39:48.890Z,584.93
2018-12-22T20:42:18.489Z,522.23
2018-12-22T20:44:48.012Z,579.37
2018-12-22T20:47:17.578Z,449.53
2018-12-22T20:49:47.333Z,638.07
2018-12-22T20:52:17.019Z,442.97
2018-12-22T20:54:46.634Z,514.90
2018-12-22T20:57:16.170Z,435.77
2018-12-22T20:59:46.567Z,463.80
2018-12-22T21:02:16.142Z,449.23
2018-12-22T21:04:45.833Z,469.60
2018-12-22T21:07:15.720Z,657.23
2018-12-22T21:09:45.414Z,465.90
2018-12-22T21:12:14.931Z,482.70
2018-12-22T21:14:44.436Z,448.40
2018-12-22T21:17:14.080Z,485.70
2018-12-22T21:19:43.768Z,453.53
2018-12-22T21:22:13.318Z,462.50
2018-12-22T21:24:42.927Z,449.33
2018-12-22T21:27:12.719Z,659.60
2018-12-22T21:29:42.426Z,566.43
2018-12-22T21:32:11.974Z,635.80
2018-12-22T21:34:41.323Z,865.47
2018-12-22T21:37:11.068Z,571.73
2018-12-22T21:39:40.664Z,532.57
2018-12-22T21:42:10.179Z,448.57
2018-12-22T21:44:39.596Z,670.63
2018-12-22T21:47:09.065Z,566.70
2018-12-22T21:49:38.651Z,550.63
2018-12-22T21:52:08.307Z,606.10
2018-12-22T21:54:37.791Z,556.13
2018-12-22T21:57:07.340Z,584.03
2018-12-22T21:59:36.874Z,494.03
2018-12-22T22:02:06.499Z,732.80
2018-12-22T22:04:37.091Z,507.80
2018-12-22T22:07:07.077Z,561.10
2018-12-22T22:09:36.624Z,565.67
2018-12-22T22:12:06.229Z,497.53
2018-12-22T22:14:36.756Z,446.50
2018-12-22T22:17:06.288Z,431.73
2018-12-22T22:19:36.491Z,558.17
2018-12-22T22:22:06.139Z,553.93
2018-12-22T22:24:35.654Z,430.33
2018-12-22T22:27:05.054Z,519.63
2018-12-22T22:29:34.563Z,643.57
2018-12-22T22:32:04.190Z,544.13
2018-12-22T22:34:33.652Z,857.47
2018-12-22T22:37:03.281Z,776.77
2018-12-22T22:39:34.019Z,509.27
2018-12-22T22:42:03.519Z,593.30
2018-12-22T22:44:33.059Z,666.70
2018-12-22T22:47:02.690Z,499.73
2018-12-22T22:49:32.326Z,435.30
2018-12-22T22:52:01.906Z,602.80
2018-12-22T22:54:31.467Z,802.60
2018-12-22T22:57:00.932Z,597.43
2018-12-22T22:59:30.414Z,528.33
2018-12-22T23:01:59.947Z,441.57
2018-12-22T23:04:29.774Z,457.27
2018-12-22T23:06:59.081Z,423.63
2018-12-22T23:09:28.651Z,485.13
2018-12-22T23:11:58.214Z,557.10
2018-12-22T23:14:27.875Z,475.00
2018-12-22T23:16:57.378Z,494.13
2018-12-22T23:19:26.963Z,511.47
2018-12-22T23:21:56.467Z,560.30
2018-12-22T23:24:25.949Z,819.63
2018-12-22T23:26:55.402Z,538.60
2018-12-22T23:29:24.872Z,533.90
2018-12-22T23:31:54.505Z,522.40
2018-12-22T23:34:24.065Z,508.47
2018-12-22T23:36:53.594Z,481.03
2018-12-22T23:39:23.130Z,481.73
2018-12-22T23:41:52.650Z,458.50
2018-12-22T23:44:22.234Z,490.57
2018-12-22T23:46:51.936Z,567.80
2018-12-22T23:49:21.569Z,452.33
2018-12-22T23:51:51.165Z,560.43
2018-12-22T23:54:20.778Z,476.30
2018-12-22T23:56:50.303Z,452.83
2018-12-22T23:59:19.879Z,494.23
